createdAt,value
2018-08-03T00:00:40.953Z,92.30
2018-08-03T00:03:09.761Z,92.12
2018-08-03T00:05:39.236Z,92.39
2018-08-03T00:08:08.139Z,92.02
2018-08-03T00:10:36.846Z,92.10
2018-08-03T00:13:05.422Z,92.79
2018-08-03T00:15:35.279Z,92.89
2018-08-03T00:18:03.942Z,92.64
2018-08-03T00:20:32.587Z,92.51
2018-08-03T00:23:01.246Z,92.64
2018-08-03T00:25:30.581Z,93.03
2018-08-03T00:27:59.220Z,93.21
2018-08-03T00:30:27.949Z,92.83
2018-08-03T00:32:57.234Z,93.46
2018-08-03T00:35:25.871Z,93.19
2018-08-03T00:37:55.164Z,93.46
2018-08-03T00:40:23.890Z,94.21
2018-08-03T00:42:52.544Z,93.94
2018-08-03T00:45:21.601Z,93.79
2018-08-03T00:47:50.349Z,93.75
2018-08-03T00:50:19.085Z,93.64
2018-08-03T00:52:47.727Z,93.86
2018-08-03T00:55:16.306Z,94.07
2018-08-03T00:57:45.820Z,94.04
2018-08-03T01:00:14.425Z,93.87
2018-08-03T01:02:43.220Z,93.91
2018-08-03T01:05:11.784Z,94.18
2018-08-03T01:07:40.450Z,93.65
2018-08-03T01:10:09.965Z,94.18
2018-08-03T01:12:39.287Z,94.66
2018-08-03T01:15:08.639Z,94.23
2018-08-03T01:17:37.277Z,94.49
2018-08-03T01:20:06.512Z,94.19
2018-08-03T01:22:35.137Z,94.29
2018-08-03T01:25:03.811Z,94.59
2018-08-03T01:27:32.580Z,94.58
2018-08-03T01:30:01.269Z,94.78
2018-08-03T01:32:30.012Z,95.03
2018-08-03T01:34:58.757Z,94.76
2018-08-03T01:37:27.507Z,94.64
2018-08-03T01:39:56.151Z,94.88
2018-08-03T01:42:24.951Z,94.80
2018-08-03T01:44:54.487Z,94.73
2018-08-03T01:47:23.105Z,94.99
2018-08-03T01:49:51.690Z,95.06
2018-08-03T01:52:20.526Z,94.99
2018-08-03T01:54:49.202Z,94.83
2018-08-03T01:57:18.678Z,95.79
2018-08-03T01:59:47.294Z,95.43
2018-08-03T02:02:16.787Z,95.13
2018-08-03T02:04:45.495Z,95.79
2018-08-03T02:07:14.272Z,95.79
2018-08-03T02:09:42.962Z,95.71
2018-08-03T02:12:11.785Z,95.64
2018-08-03T02:14:40.547Z,95.75
2018-08-03T02:17:09.264Z,95.96
2018-08-03T02:19:38.696Z,95.76
2018-08-03T02:22:07.380Z,96.04
2018-08-03T02:24:36.861Z,96.02
2018-08-03T02:27:05.530Z,96.37
2018-08-03T02:29:34.166Z,96.01
2018-08-03T02:32:02.787Z,96.11
2018-08-03T02:34:31.471Z,96.21
2018-08-03T02:37:00.105Z,97.03
2018-08-03T02:39:29.502Z,96.39
2018-08-03T02:41:58.485Z,96.63
2018-08-03T02:44:27.373Z,96.25
2018-08-03T02:46:57.639Z,96.89
2018-08-03T02:49:27.132Z,96.70
2018-08-03T02:51:56.060Z,96.33
2018-08-03T02:54:24.656Z,97.17
2018-08-03T02:56:53.250Z,97.49
2018-08-03T02:59:22.043Z,97.59
2018-08-03T03:01:50.740Z,97.37
2018-08-03T03:04:19.417Z,97.16
2018-08-03T03:06:48.022Z,97.44
2018-08-03T03:09:16.597Z,97.64
2018-08-03T03:11:45.227Z,97.54
2018-08-03T03:14:13.921Z,97.35
2018-08-03T03:16:42.710Z,97.55
2018-08-03T03:19:11.360Z,97.73
2018-08-03T03:21:40.211Z,97.26
2018-08-03T03:24:08.867Z,97.69
2018-08-03T03:26:37.550Z,97.51
2018-08-03T03:29:06.195Z,97.79
2018-08-03T03:31:35.126Z,97.97
2018-08-03T03:34:03.847Z,97.84
2018-08-03T03:36:32.592Z,98.57
2018-08-03T03:39:01.946Z,98.50
2018-08-03T03:41:30.498Z,97.77
2018-08-03T03:43:59.265Z,98.09
2018-08-03T03:46:27.946Z,98.38
2018-08-03T03:48:56.702Z,98.04
2018-08-03T03:51:26.033Z,98.56
2018-08-03T03:53:54.787Z,98.70
2018-08-03T03:56:23.473Z,98.19
2018-08-03T03:58:52.272Z,98.30
2018-08-03T04:01:20.923Z,98.36
2018-08-03T04:03:49.620Z,98.55
2018-08-03T04:06:18.319Z,98.60
2018-08-03T04:08:46.952Z,98.26
2018-08-03T04:11:15.743Z,97.70
2018-08-03T04:13:44.441Z,97.29
2018-08-03T04:16:13.280Z,97.28
2018-08-03T04:18:41.931Z,97.08
2018-08-03T04:21:10.697Z,97.14
2018-08-03T04:23:39.477Z,97.19
2018-08-03T04:26:08.572Z,97.10
2018-08-03T04:28:37.182Z,96.84
2018-08-03T04:31:06.673Z,96.80
2018-08-03T04:33:35.906Z,96.13
2018-08-03T04:36:04.556Z,96.21
2018-08-03T04:38:33.392Z,95.64
2018-08-03T04:41:02.117Z,95.68
2018-08-03T04:43:30.773Z,95.60
2018-08-03T04:45:59.502Z,94.87
2018-08-03T04:48:28.308Z,94.70
2018-08-03T04:50:56.997Z,94.37
2018-08-03T04:53:25.736Z,93.78
2018-08-03T04:55:54.576Z,93.43
2018-08-03T04:58:23.257Z,92.75
2018-08-03T05:00:52.498Z,92.43
2018-08-03T05:03:22.250Z,91.95
2018-08-03T05:05:50.936Z,91.87
2018-08-03T05:08:19.596Z,91.14
2018-08-03T05:10:48.271Z,89.61
2018-08-03T05:13:16.840Z,88.16
2018-08-03T05:15:45.588Z,86.23
2018-08-03T05:18:14.202Z,84.42
2018-08-03T05:20:42.795Z,82.00
2018-08-03T05:23:11.593Z,79.67
2018-08-03T05:25:40.183Z,77.40
2018-08-03T05:28:08.875Z,76.17
2018-08-03T05:30:37.565Z,74.86
2018-08-03T05:33:06.198Z,73.18
2018-08-03T05:35:34.853Z,72.51
2018-08-03T05:38:03.566Z,70.61
2018-08-03T05:40:32.132Z,69.67
2018-08-03T05:43:01.729Z,70.40
2018-08-03T05:45:30.925Z,69.05
2018-08-03T05:47:59.573Z,67.82
2018-08-03T05:50:29.033Z,67.13
2018-08-03T05:52:57.652Z,66.27
2018-08-03T05:55:26.378Z,65.46
2018-08-03T05:57:55.055Z,62.96
2018-08-03T06:00:23.724Z,62.18
2018-08-03T06:02:52.363Z,60.73
2018-08-03T06:05:21.701Z,60.73
2018-08-03T06:07:50.757Z,58.36
2018-08-03T06:10:20.206Z,56.86
2018-08-03T06:12:48.795Z,56.06
2018-08-03T06:15:17.488Z,55.46
2018-08-03T06:17:46.161Z,54.31
2018-08-03T06:20:14.929Z,54.51
2018-08-03T06:22:43.556Z,53.86
2018-08-03T06:25:12.367Z,51.79
2018-08-03T06:27:40.937Z,51.31
2018-08-03T06:30:11.928Z,52.08
2018-08-03T06:32:41.163Z,50.68
2018-08-03T06:35:09.772Z,50.57
2018-08-03T06:37:38.407Z,49.62
2018-08-03T06:40:07.976Z,50.29
2018-08-03T06:42:36.668Z,49.39
2018-08-03T06:45:05.678Z,49.34
2018-08-03T06:47:34.341Z,48.96
2018-08-03T06:50:02.918Z,47.41
2018-08-03T06:52:31.583Z,47.01
2018-08-03T06:55:00.259Z,45.23
2018-08-03T06:57:28.988Z,44.30
2018-08-03T06:59:58.368Z,42.94
2018-08-03T07:02:27.004Z,41.82
2018-08-03T07:04:55.650Z,43.06
2018-08-03T07:07:24.286Z,42.61
2018-08-03T07:09:53.053Z,41.74
2018-08-03T07:12:21.803Z,41.47
2018-08-03T07:14:51.275Z,40.29
2018-08-03T07:17:20.002Z,39.76
2018-08-03T07:19:48.708Z,40.73
2018-08-03T07:22:17.427Z,39.90
2018-08-03T07:24:46.035Z,40.42
2018-08-03T07:27:15.274Z,39.24
2018-08-03T07:29:44.044Z,39.75
2018-08-03T07:32:12.722Z,39.56
2018-08-03T07:34:41.337Z,39.14
2018-08-03T07:37:10.053Z,38.52
2018-08-03T07:39:38.841Z,36.72
2018-08-03T07:42:07.532Z,35.85
2018-08-03T07:44:36.216Z,34.79
2018-08-03T07:47:04.977Z,35.36
2018-08-03T07:49:34.573Z,34.35
2018-08-03T07:52:03.432Z,34.77
2018-08-03T07:54:32.877Z,34.15
2018-08-03T07:57:01.542Z,33.31
2018-08-03T07:59:30.187Z,34.05
2018-08-03T08:01:58.940Z,33.61
2018-08-03T08:04:28.192Z,32.75
2018-08-03T08:06:56.843Z,31.18
2018-08-03T08:09:25.689Z,31.80
2018-08-03T08:11:54.296Z,31.15
2018-08-03T08:14:23.762Z,29.70
2018-08-03T08:16:52.414Z,28.97
2018-08-03T08:19:21.037Z,28.99
2018-08-03T08:21:49.765Z,28.90
2018-08-03T08:24:18.423Z,28.27
2018-08-03T08:26:47.112Z,28.52
2018-08-03T08:29:15.897Z,28.07
2018-08-03T08:31:45.218Z,28.30
2018-08-03T08:34:14.008Z,26.81
2018-08-03T08:36:43.589Z,26.65
2018-08-03T08:39:13.683Z,26.70
2018-08-03T08:41:43.471Z,26.96
2018-08-03T08:44:13.204Z,25.86
2018-08-03T08:46:42.409Z,26.47
2018-08-03T08:49:11.732Z,25.77
2018-08-03T08:51:40.308Z,24.66
2018-08-03T08:54:09.085Z,24.96
2018-08-03T08:56:37.884Z,24.62
2018-08-03T08:59:06.531Z,24.25
2018-08-03T09:01:35.398Z,22.81
2018-08-03T09:04:04.068Z,22.50
2018-08-03T09:06:32.680Z,22.75
2018-08-03T09:09:01.483Z,22.42
2018-08-03T09:11:30.219Z,23.13
2018-08-03T09:13:58.919Z,22.00
2018-08-03T09:16:27.644Z,21.78
2018-08-03T09:18:56.385Z,21.39
2018-08-03T09:21:25.121Z,20.61
2018-08-03T09:23:53.816Z,20.84
2018-08-03T09:26:22.480Z,21.20
2018-08-03T09:28:52.609Z,20.65
2018-08-03T09:31:21.653Z,20.90
2018-08-03T09:33:51.079Z,20.25
2018-08-03T09:36:19.904Z,20.22
2018-08-03T09:38:49.265Z,20.95
2018-08-03T09:41:17.990Z,20.40
2018-08-03T09:43:46.715Z,21.41
2018-08-03T09:46:15.386Z,21.23
2018-08-03T09:48:44.179Z,20.93
2018-08-03T09:51:13.350Z,20.19
2018-08-03T09:53:41.961Z,20.28
2018-08-03T09:56:10.543Z,20.37
2018-08-03T09:58:40.063Z,20.40
2018-08-03T10:01:11.666Z,21.07
2018-08-03T10:03:41.340Z,20.80
2018-08-03T10:06:10.719Z,21.54
2018-08-03T10:08:39.396Z,20.29
2018-08-03T10:11:08.613Z,20.43
2018-08-03T10:13:37.404Z,19.96
2018-08-03T10:16:06.884Z,19.07
2018-08-03T10:18:36.500Z,18.96
2018-08-03T10:21:05.190Z,19.73
2018-08-03T10:23:33.898Z,18.97
2018-08-03T10:26:02.524Z,18.59
2018-08-03T10:28:31.244Z,18.47
2018-08-03T10:30:59.954Z,17.95
2018-08-03T10:33:28.633Z,17.64
2018-08-03T10:35:57.428Z,18.50
2018-08-03T10:38:26.778Z,17.13
2018-08-03T10:40:55.479Z,16.94
2018-08-03T10:43:25.003Z,16.28
2018-08-03T10:45:54.514Z,16.78
2018-08-03T10:48:23.134Z,17.58
2018-08-03T10:50:51.829Z,17.26
2018-08-03T10:53:20.585Z,16.45
2018-08-03T10:55:49.292Z,16.45
2018-08-03T10:58:17.914Z,15.81
2018-08-03T11:00:46.783Z,15.79
2018-08-03T11:03:16.180Z,15.53
2018-08-03T11:05:44.860Z,15.62
2018-08-03T11:08:13.500Z,15.82
2018-08-03T11:10:42.215Z,16.69
2018-08-03T11:13:10.873Z,17.12
2018-08-03T11:15:40.230Z,16.76
2018-08-03T11:18:08.915Z,16.14
2018-08-03T11:20:37.613Z,15.90
2018-08-03T11:23:06.320Z,15.53
2018-08-03T11:25:35.041Z,14.78
2018-08-03T11:28:04.304Z,15.17
2018-08-03T11:30:42.199Z,15.17
2018-08-03T11:33:10.899Z,14.82
2018-08-03T11:35:39.723Z,15.20
2018-08-03T11:38:08.354Z,15.60
2018-08-03T11:40:37.184Z,16.04
2018-08-03T11:43:05.751Z,15.37
2018-08-03T11:45:34.618Z,14.92
2018-08-03T11:48:03.355Z,14.35
2018-08-03T11:50:32.127Z,14.56
2018-08-03T11:53:00.977Z,14.54
2018-08-03T11:55:29.945Z,13.68
2018-08-03T11:58:00.101Z,13.83
2018-08-03T12:00:29.014Z,13.57
2018-08-03T12:02:58.184Z,12.73
2018-08-03T12:05:26.871Z,12.82
2018-08-03T12:07:55.610Z,12.41
2018-08-03T12:10:24.195Z,12.46
2018-08-03T12:12:52.816Z,12.54
2018-08-03T12:15:21.478Z,12.66
2018-08-03T12:17:50.335Z,13.04
2018-08-03T12:20:18.958Z,13.18
2018-08-03T12:22:48.236Z,12.97
2018-08-03T12:25:16.801Z,13.46
2018-08-03T12:27:45.556Z,13.91
2018-08-03T12:30:14.780Z,14.19
2018-08-03T12:32:43.483Z,14.13
2018-08-03T12:35:12.159Z,14.31
2018-08-03T12:37:40.749Z,13.98
2018-08-03T12:40:09.460Z,13.82
2018-08-03T12:42:39.067Z,14.03
2018-08-03T12:45:07.890Z,13.92
2018-08-03T12:47:36.514Z,14.76
2018-08-03T12:50:05.184Z,15.36
2018-08-03T12:52:33.908Z,14.45
2018-08-03T12:55:02.580Z,14.09
2018-08-03T12:57:31.410Z,14.69
2018-08-03T13:00:00.184Z,15.27
2018-08-03T13:02:28.841Z,15.83
2018-08-03T13:04:57.450Z,15.14
2018-08-03T13:07:26.223Z,15.25
2018-08-03T13:09:55.786Z,13.94
2018-08-03T13:12:24.440Z,13.72
2018-08-03T13:14:53.108Z,14.38
2018-08-03T13:17:21.818Z,16.47
2018-08-03T13:19:50.430Z,19.04
2018-08-03T13:22:22.660Z,18.68
2018-08-03T13:24:51.856Z,18.92
2018-08-03T13:27:21.187Z,19.09
2018-08-03T13:29:49.935Z,18.73
2018-08-03T13:32:19.150Z,18.35
2018-08-03T13:34:48.802Z,19.06
2018-08-03T13:37:17.730Z,20.42
2018-08-03T13:39:46.352Z,20.26
2018-08-03T13:42:15.046Z,19.46
2018-08-03T13:44:43.802Z,20.13
2018-08-03T13:47:12.521Z,22.28
2018-08-03T13:49:41.195Z,22.18
2018-08-03T13:52:09.997Z,24.09
2018-08-03T13:54:38.636Z,23.46
2018-08-03T13:57:07.440Z,24.53
2018-08-03T13:59:36.730Z,24.38
2018-08-03T14:02:27.375Z,24.30
2018-08-03T14:04:56.600Z,24.12
2018-08-03T14:07:27.130Z,24.19
2018-08-03T14:09:56.590Z,25.04
2018-08-03T14:12:25.246Z,24.94
2018-08-03T14:14:54.139Z,24.57
2018-08-03T14:17:22.977Z,23.78
2018-08-03T14:19:51.639Z,23.43
2018-08-03T14:22:20.452Z,23.19
2018-08-03T14:24:50.094Z,24.85
2018-08-03T14:27:18.912Z,26.08
2018-08-03T14:29:47.644Z,25.33
2018-08-03T14:32:16.380Z,25.91
2018-08-03T14:34:45.164Z,26.32
2018-08-03T14:37:13.885Z,27.78
2018-08-03T14:39:43.336Z,27.44
2018-08-03T14:42:12.066Z,26.13
2018-08-03T14:44:41.488Z,26.73
2018-08-03T14:47:10.347Z,27.67
2018-08-03T14:49:39.016Z,27.43
2018-08-03T14:52:07.704Z,27.13
2018-08-03T14:54:36.446Z,27.81
2018-08-03T14:57:05.702Z,28.77
2018-08-03T14:59:35.279Z,28.10
2018-08-03T15:02:04.199Z,29.24
2018-08-03T15:04:33.634Z,28.28
2018-08-03T15:07:02.319Z,28.75
2018-08-03T15:09:30.962Z,29.23
2018-08-03T15:11:59.640Z,29.24
2018-08-03T15:14:28.406Z,29.20
2018-08-03T15:16:57.110Z,29.02
2018-08-03T15:19:25.799Z,29.76
2018-08-03T15:21:54.552Z,29.65
2018-08-03T15:24:23.195Z,29.87
2018-08-03T15:26:51.922Z,30.08
2018-08-03T15:29:20.664Z,29.88
2018-08-03T15:31:49.367Z,30.45
2018-08-03T15:34:18.087Z,30.63
2018-08-03T15:36:46.898Z,30.67
2018-08-03T15:39:15.578Z,31.04
2018-08-03T15:41:44.380Z,31.27
2018-08-03T15:44:13.126Z,31.91
2018-08-03T15:46:41.945Z,31.71
2018-08-03T15:49:10.616Z,30.56
2018-08-03T15:51:39.982Z,30.87
2018-08-03T15:54:08.747Z,30.18
2018-08-03T15:56:37.429Z,30.66
2018-08-03T15:59:06.199Z,31.25
2018-08-03T16:01:35.637Z,30.28
2018-08-03T16:04:04.326Z,29.34
2018-08-03T16:06:33.147Z,29.41
2018-08-03T16:09:02.563Z,29.82
2018-08-03T16:11:31.237Z,30.73
2018-08-03T16:13:59.986Z,31.87
2018-08-03T16:16:28.941Z,32.86
2018-08-03T16:18:57.598Z,32.79
2018-08-03T16:21:26.515Z,32.47
2018-08-03T16:23:55.220Z,31.73
2018-08-03T16:26:24.125Z,31.61
2018-08-03T16:28:52.922Z,31.89
2018-08-03T16:31:21.626Z,31.25
2018-08-03T16:33:50.330Z,32.86
2018-08-03T16:36:18.996Z,32.29
2018-08-03T16:38:47.965Z,32.71
2018-08-03T16:41:16.663Z,32.74
2018-08-03T16:43:45.456Z,32.74
2018-08-03T16:46:14.097Z,33.17
2018-08-03T16:48:42.858Z,33.34
2018-08-03T16:51:11.707Z,33.72
2018-08-03T16:53:40.545Z,34.15
2018-08-03T16:56:09.336Z,33.36
2018-08-03T16:58:38.135Z,33.63
2018-08-03T17:01:06.924Z,33.83
2018-08-03T17:03:35.618Z,33.66
2018-08-03T17:06:04.883Z,34.14
2018-08-03T17:08:33.617Z,34.59
2018-08-03T17:11:02.285Z,34.22
2018-08-03T17:13:31.053Z,34.26
2018-08-03T17:15:59.776Z,35.38
2018-08-03T17:18:28.551Z,36.05
2018-08-03T17:20:57.856Z,36.08
2018-08-03T17:23:26.486Z,36.71
2018-08-03T17:25:55.683Z,37.11
2018-08-03T17:28:24.827Z,37.97
2018-08-03T17:30:54.105Z,38.96
2018-08-03T17:33:23.462Z,39.25
2018-08-03T17:35:52.126Z,39.05
2018-08-03T17:38:21.432Z,40.29
2018-08-03T17:40:50.076Z,40.54
2018-08-03T17:43:18.800Z,41.14
2018-08-03T17:45:47.526Z,43.87
2018-08-03T17:48:16.277Z,44.66
2018-08-03T17:50:46.406Z,45.18
2018-08-03T17:53:15.036Z,45.91
2018-08-03T17:55:43.763Z,47.03
2018-08-03T17:58:12.520Z,48.17
2018-08-03T18:00:41.983Z,48.31
2018-08-03T18:03:10.663Z,48.62
2018-08-03T18:05:39.288Z,49.30
2018-08-03T18:08:08.081Z,50.53
2018-08-03T18:10:36.773Z,50.82
2018-08-03T18:13:05.923Z,51.98
2018-08-03T18:15:34.768Z,51.63
2018-08-03T18:18:03.438Z,50.66
2018-08-03T18:20:32.746Z,50.08
2018-08-03T18:23:01.522Z,50.86
2018-08-03T18:25:30.177Z,52.61
2018-08-03T18:27:58.895Z,53.77
2018-08-03T18:30:27.567Z,54.87
2018-08-03T18:32:56.338Z,55.88
2018-08-03T18:35:25.081Z,57.27
2018-08-03T18:37:53.836Z,56.09
2018-08-03T18:40:22.594Z,56.34
2018-08-03T18:42:52.014Z,56.39
2018-08-03T18:45:20.770Z,56.19
2018-08-03T18:47:49.414Z,57.33
2018-08-03T18:50:18.066Z,58.54
2018-08-03T18:52:46.786Z,58.76
2018-08-03T18:55:15.477Z,58.78
2018-08-03T18:57:44.136Z,58.76
2018-08-03T19:00:12.944Z,59.98
2018-08-03T19:02:41.545Z,60.78
2018-08-03T19:05:10.381Z,60.72
2018-08-03T19:07:39.074Z,61.23
2018-08-03T19:10:07.867Z,61.89
2018-08-03T19:12:36.638Z,61.68
2018-08-03T19:15:06.013Z,62.41
2018-08-03T19:17:34.937Z,62.31
2018-08-03T19:20:04.289Z,62.60
2018-08-03T19:22:33.349Z,62.22
2018-08-03T19:25:02.881Z,62.72
2018-08-03T19:27:31.652Z,65.02
2018-08-03T19:30:00.391Z,64.95
2018-08-03T19:32:29.294Z,64.45
2018-08-03T19:34:58.053Z,65.09
2018-08-03T19:37:26.861Z,66.49
2018-08-03T19:39:55.757Z,67.12
2018-08-03T19:42:24.499Z,66.62
2018-08-03T19:44:53.922Z,67.03
2018-08-03T19:47:22.661Z,66.89
2018-08-03T19:49:51.529Z,67.76
2018-08-03T19:52:20.247Z,68.75
2018-08-03T19:54:49.548Z,69.67
2018-08-03T19:57:18.261Z,68.80
2018-08-03T19:59:46.910Z,69.03
2018-08-03T20:02:17.406Z,69.48
2018-08-03T20:04:46.257Z,70.33
2018-08-03T20:07:14.991Z,72.06
2018-08-03T20:09:43.738Z,71.37
2018-08-03T20:12:13.120Z,70.99
2018-08-03T20:14:42.080Z,71.35
2018-08-03T20:17:11.692Z,71.32
2018-08-03T20:19:40.372Z,71.46
2018-08-03T20:22:17.350Z,71.84
2018-08-03T20:24:47.188Z,72.76
2018-08-03T20:27:16.607Z,72.57
2018-08-03T20:29:45.662Z,72.48
2018-08-03T20:32:14.603Z,73.60
2018-08-03T20:34:43.919Z,73.46
2018-08-03T20:37:12.647Z,73.50
2018-08-03T20:39:42.189Z,73.88
2018-08-03T20:42:10.999Z,75.12
2018-08-03T20:44:39.815Z,75.26
2018-08-03T20:47:08.774Z,74.84
2018-08-03T20:49:38.295Z,74.85
2018-08-03T20:52:07.169Z,74.54
2018-08-03T20:54:35.716Z,74.96
2018-08-03T20:57:04.429Z,74.90
2018-08-03T20:59:33.138Z,74.90
2018-08-03T21:02:02.511Z,75.63
2018-08-03T21:04:32.230Z,75.95
2018-08-03T21:07:00.912Z,76.16
2018-08-03T21:09:29.609Z,76.38
2018-08-03T21:11:59.103Z,76.08
2018-08-03T21:14:27.792Z,75.94
2018-08-03T21:16:56.494Z,76.23
2018-08-03T21:19:25.849Z,76.56
2018-08-03T21:21:54.509Z,76.61
2018-08-03T21:24:23.276Z,76.62
2018-08-03T21:26:52.092Z,77.22
2018-08-03T21:29:20.812Z,77.50
2018-08-03T21:31:51.177Z,77.45
2018-08-03T21:34:20.059Z,77.32
2018-08-03T21:36:48.694Z,77.33
2018-08-03T21:39:17.483Z,77.84
2018-08-03T21:41:46.212Z,78.25
2018-08-03T21:44:15.277Z,78.66
2018-08-03T21:46:44.068Z,78.72
2018-08-03T21:49:12.693Z,78.14
2018-08-03T21:51:42.085Z,78.74
2018-08-03T21:54:10.788Z,78.62
2018-08-03T21:56:39.438Z,79.07
2018-08-03T21:59:08.152Z,79.17
2018-08-03T22:01:36.809Z,78.78
2018-08-03T22:04:05.450Z,79.06
2018-08-03T22:06:34.226Z,79.21
2018-08-03T22:09:03.158Z,80.14
2018-08-03T22:11:31.832Z,80.47
2018-08-03T22:14:00.549Z,80.16
2018-08-03T22:16:29.249Z,80.48
2018-08-03T22:18:58.702Z,81.86
2018-08-03T22:21:27.349Z,82.06
2018-08-03T22:23:55.965Z,81.36
2018-08-03T22:26:25.358Z,81.61
2018-08-03T22:28:54.980Z,81.71
2018-08-03T22:31:24.479Z,81.61
2018-08-03T22:33:53.836Z,81.05
2018-08-03T22:36:23.297Z,81.78
2018-08-03T22:38:52.153Z,81.76
2018-08-03T22:41:20.795Z,83.24
2018-08-03T22:43:49.702Z,83.62
2018-08-03T22:46:18.289Z,83.02
2018-08-03T22:48:47.097Z,82.54
2018-08-03T22:51:15.777Z,82.48
2018-08-03T22:53:44.625Z,83.11
2018-08-03T22:56:13.259Z,83.54
2018-08-03T22:58:41.993Z,83.04
2018-08-03T23:01:10.882Z,82.89
2018-08-03T23:03:39.530Z,82.77
2018-08-03T23:06:09.217Z,82.75
2018-08-03T23:08:37.997Z,82.44
2018-08-03T23:11:07.447Z,83.66
2018-08-03T23:13:36.137Z,83.81
2018-08-03T23:16:04.913Z,83.10
2018-08-03T23:18:34.142Z,83.21
2018-08-03T23:21:02.867Z,83.00
2018-08-03T23:23:31.509Z,82.58
2018-08-03T23:26:00.189Z,83.86
2018-08-03T23:28:28.798Z,84.95
2018-08-03T23:30:57.466Z,85.23
2018-08-03T23:33:26.151Z,85.34
2018-08-03T23:35:54.983Z,84.99
2018-08-03T23:38:23.653Z,84.88
2018-08-03T23:40:52.402Z,84.21
2018-08-03T23:43:21.165Z,84.28
2018-08-03T23:45:50.613Z,85.36
2018-08-03T23:48:19.228Z,86.66
2018-08-03T23:50:47.876Z,86.46
2018-08-03T23:53:16.483Z,85.70
2018-08-03T23:55:45.257Z,85.15
2018-08-03T23:58:13.902Z,85.32
